createdAt,value
2017-05-02T00:00:15.187Z,9.62
2017-05-02T00:00:55.857Z,9.62
2017-05-02T00:01:36.546Z,9.62
2017-05-02T00:02:17.250Z,9.44
2017-05-02T00:02:57.905Z,9.61
2017-05-02T00:03:38.573Z,9.55
2017-05-02T00:04:19.194Z,9.61
2017-05-02T00:04:59.860Z,9.56
2017-05-02T00:05:40.517Z,9.59
2017-05-02T00:06:21.153Z,9.64
2017-05-02T00:07:01.856Z,9.46
2017-05-02T00:07:42.469Z,9.48
2017-05-02T00:08:23.142Z,9.51
2017-05-02T00:09:03.789Z,9.51
2017-05-02T00:09:44.444Z,9.47
2017-05-02T00:10:25.093Z,9.56
2017-05-02T00:11:05.793Z,9.44
2017-05-02T00:11:46.481Z,9.51
2017-05-02T00:12:27.088Z,9.5
2017-05-02T00:13:07.738Z,9.51
2017-05-02T00:13:48.396Z,9.5
2017-05-02T00:14:29.088Z,9.51
2017-05-02T00:15:09.653Z,9.58
2017-05-02T00:15:50.316Z,9.54
2017-05-02T00:16:31.005Z,9.44
2017-05-02T00:17:11.700Z,9.48
2017-05-02T00:17:52.258Z,9.47
2017-05-02T00:18:32.935Z,9.48
2017-05-02T00:19:13.612Z,9.54
2017-05-02T00:19:54.312Z,9.56
2017-05-02T00:20:34.886Z,9.58
2017-05-02T00:21:15.643Z,9.56
2017-05-02T00:21:56.374Z,9.51
2017-05-02T00:22:37.041Z,9.47
2017-05-02T00:23:17.614Z,9.46
2017-05-02T00:23:58.255Z,9.51
2017-05-02T00:24:38.944Z,9.51
2017-05-02T00:25:19.500Z,9.54
2017-05-02T00:26:00.210Z,9.55
2017-05-02T00:26:40.838Z,9.48
2017-05-02T00:27:21.418Z,9.56
2017-05-02T00:28:02.083Z,9.54
2017-05-02T00:28:42.798Z,9.51
2017-05-02T00:29:23.382Z,9.44
2017-05-02T00:30:04.025Z,9.56
2017-05-02T00:30:44.758Z,9.56
2017-05-02T00:31:25.414Z,9.55
2017-05-02T00:32:06.071Z,9.58
2017-05-02T00:32:46.725Z,9.54
2017-05-02T00:33:27.380Z,9.55
2017-05-02T00:34:08.027Z,9.59
2017-05-02T00:34:48.682Z,9.5
2017-05-02T00:35:29.277Z,9.51
2017-05-02T00:36:09.889Z,9.48
2017-05-02T00:36:50.595Z,9.41
2017-05-02T00:37:31.300Z,9.41
2017-05-02T00:38:11.868Z,9.41
2017-05-02T00:38:52.506Z,9.41
2017-05-02T00:39:33.312Z,9.44
2017-05-02T00:40:14.015Z,9.39
2017-05-02T00:40:54.663Z,9.29
2017-05-02T00:41:35.336Z,9.36
2017-05-02T00:42:16.066Z,9.37
2017-05-02T00:42:56.775Z,9.31
2017-05-02T00:43:38.407Z,9.39
2017-05-02T00:44:21.102Z,9.29
2017-05-02T00:45:01.753Z,9.29
2017-05-02T00:45:42.338Z,9.37
2017-05-02T00:46:23.022Z,9.37
2017-05-02T00:47:03.715Z,9.34
2017-05-02T00:47:44.266Z,9.36
2017-05-02T00:48:24.942Z,9.28
2017-05-02T00:49:05.577Z,9.28
2017-05-02T00:49:46.141Z,9.26
2017-05-02T00:50:26.791Z,9.29
2017-05-02T00:51:08.452Z,9.25
2017-05-02T00:51:49.013Z,9.28
2017-05-02T00:52:29.679Z,9.28
2017-05-02T00:53:10.404Z,9.26
2017-05-02T00:53:50.981Z,9.29
2017-05-02T00:54:31.646Z,9.29
2017-05-02T00:55:12.365Z,9.26
2017-05-02T00:55:52.930Z,9.26
2017-05-02T00:56:33.648Z,9.31
2017-05-02T00:57:15.721Z,9.29
2017-05-02T00:57:56.428Z,9.29
2017-05-02T00:58:36.990Z,9.23
2017-05-02T00:59:17.643Z,9.26
2017-05-02T00:59:58.323Z,9.23
2017-05-02T01:00:39.435Z,9.25
2017-05-02T01:01:20.013Z,9.36
2017-05-02T01:02:01.678Z,9.29
2017-05-02T01:02:42.402Z,9.29
2017-05-02T01:03:23.371Z,9.28
2017-05-02T01:04:03.937Z,9.32
2017-05-02T01:04:45.626Z,9.26
2017-05-02T01:05:27.342Z,9.26
2017-05-02T01:06:09.006Z,9.28
2017-05-02T01:06:49.663Z,9.25
2017-05-02T01:07:31.346Z,9.29
2017-05-02T01:08:12.724Z,9.29
2017-05-02T01:08:53.579Z,9.39
2017-05-02T01:09:34.221Z,9.4
2017-05-02T01:10:14.878Z,9.23
2017-05-02T01:10:55.435Z,9.29
2017-05-02T01:11:36.155Z,9.29
2017-05-02T01:12:16.879Z,9.29
2017-05-02T01:12:57.428Z,9.26
2017-05-02T01:13:38.115Z,9.26
2017-05-02T01:14:18.843Z,9.25
2017-05-02T01:14:59.412Z,9.25
2017-05-02T01:15:40.087Z,9.36
2017-05-02T01:16:20.754Z,9.26
2017-05-02T01:17:01.477Z,9.32
2017-05-02T01:17:42.129Z,9.25
2017-05-02T01:18:22.769Z,9.29
2017-05-02T01:19:03.461Z,9.32
2017-05-02T01:19:44.197Z,9.23
2017-05-02T01:20:24.961Z,9.25
2017-05-02T01:21:05.748Z,9.28
2017-05-02T01:21:46.433Z,9.26
2017-05-02T01:22:27.010Z,9.26
2017-05-02T01:23:07.757Z,9.28
2017-05-02T01:23:48.545Z,9.32
2017-05-02T01:24:29.264Z,9.32
2017-05-02T01:25:09.828Z,9.32
2017-05-02T01:25:50.488Z,9.34
2017-05-02T01:26:31.160Z,9.28
2017-05-02T01:27:11.859Z,9.29
2017-05-02T01:27:52.443Z,9.26
2017-05-02T01:28:33.105Z,9.23
2017-05-02T01:29:13.669Z,9.31
2017-05-02T01:29:54.366Z,9.22
2017-05-02T01:30:34.933Z,9.25
2017-05-02T01:31:15.587Z,9.29
2017-05-02T01:31:56.292Z,9.26
2017-05-02T01:32:36.997Z,9.26
2017-05-02T01:33:17.600Z,9.28
2017-05-02T01:33:58.304Z,9.22
2017-05-02T01:34:38.992Z,9.23
2017-05-02T01:35:19.694Z,9.26
2017-05-02T01:36:00.258Z,9.23
2017-05-02T01:36:40.916Z,9.23
2017-05-02T01:37:21.559Z,9.23
2017-05-02T01:38:02.166Z,9.22
2017-05-02T01:38:42.875Z,9.26
2017-05-02T01:39:23.610Z,9.26
2017-05-02T01:40:04.190Z,9.29
2017-05-02T01:40:44.835Z,9.28
2017-05-02T01:41:25.516Z,9.28
2017-05-02T01:42:06.127Z,9.28
2017-05-02T01:42:46.831Z,9.28
2017-05-02T01:43:27.556Z,9.25
2017-05-02T01:44:08.192Z,9.28
2017-05-02T01:44:48.840Z,9.25
2017-05-02T01:45:29.923Z,9.26
2017-05-02T01:46:10.604Z,9.23
2017-05-02T01:46:51.335Z,9.23
2017-05-02T01:47:31.986Z,9.29
2017-05-02T01:48:12.646Z,9.23
2017-05-02T01:48:53.291Z,9.31
2017-05-02T01:49:33.939Z,9.25
2017-05-02T01:50:14.603Z,9.25
2017-05-02T01:50:55.318Z,9.25
2017-05-02T01:51:35.984Z,9.26
2017-05-02T01:52:16.943Z,9.26
2017-05-02T01:52:57.642Z,9.28
2017-05-02T01:53:38.304Z,9.26
2017-05-02T01:54:19.003Z,9.28
2017-05-02T01:54:59.560Z,9.31
2017-05-02T01:55:40.200Z,9.23
2017-05-02T01:56:20.860Z,9.26
2017-05-02T01:57:01.412Z,9.32
2017-05-02T01:57:42.490Z,9.26
2017-05-02T01:58:23.182Z,9.32
2017-05-02T01:59:03.758Z,9.36
2017-05-02T01:59:44.446Z,9.25
2017-05-02T02:00:25.123Z,9.28
2017-05-02T02:01:05.697Z,9.29
2017-05-02T02:01:46.406Z,9.31
2017-05-02T02:02:27.054Z,9.25
2017-05-02T02:03:07.706Z,9.25
2017-05-02T02:03:48.380Z,9.29
2017-05-02T02:04:29.117Z,9.34
2017-05-02T02:05:09.774Z,9.31
2017-05-02T02:05:50.431Z,9.26
2017-05-02T02:06:31.185Z,9.26
2017-05-02T02:07:11.768Z,9.23
2017-05-02T02:07:52.489Z,9.23
2017-05-02T02:08:33.153Z,9.29
2017-05-02T02:09:13.895Z,9.22
2017-05-02T02:09:54.546Z,9.23
2017-05-02T02:10:35.210Z,9.23
2017-05-02T02:11:15.905Z,9.25
2017-05-02T02:11:56.595Z,9.34
2017-05-02T02:12:37.210Z,9.31
2017-05-02T02:13:17.819Z,9.23
2017-05-02T02:13:58.515Z,9.25
2017-05-02T02:14:39.211Z,9.26
2017-05-02T02:15:19.771Z,9.32
2017-05-02T02:16:00.437Z,9.25
2017-05-02T02:16:41.125Z,9.36
2017-05-02T02:17:21.820Z,9.25
2017-05-02T02:18:02.391Z,9.29
2017-05-02T02:18:43.038Z,9.25
2017-05-02T02:19:23.738Z,9.36
2017-05-02T02:20:04.435Z,9.4
2017-05-02T02:20:45.014Z,9.39
2017-05-02T02:21:26.158Z,9.41
2017-05-02T02:22:06.830Z,9.32
2017-05-02T02:22:47.568Z,9.4
2017-05-02T02:23:28.330Z,9.4
2017-05-02T02:24:08.983Z,9.36
2017-05-02T02:24:49.639Z,9.41
2017-05-02T02:25:30.375Z,9.29
2017-05-02T02:26:11.027Z,9.26
2017-05-02T02:26:51.606Z,9.29
2017-05-02T02:27:32.366Z,9.29
2017-05-02T02:28:13.096Z,9.31
2017-05-02T02:28:53.653Z,9.25
2017-05-02T02:29:34.308Z,9.32
2017-05-02T02:30:15.047Z,9.29
2017-05-02T02:30:55.651Z,9.26
2017-05-02T02:31:36.385Z,9.34
2017-05-02T02:32:17.112Z,9.25
2017-05-02T02:32:57.691Z,9.29
2017-05-02T02:33:38.438Z,9.34
2017-05-02T02:34:19.170Z,9.25
2017-05-02T02:34:59.823Z,9.26
2017-05-02T02:35:40.513Z,9.32
2017-05-02T02:36:21.233Z,9.29
2017-05-02T02:37:01.814Z,9.29
2017-05-02T02:37:42.558Z,9.29
2017-05-02T02:38:23.293Z,9.32
2017-05-02T02:39:03.866Z,9.39
2017-05-02T02:39:44.624Z,9.28
2017-05-02T02:40:25.354Z,9.29
2017-05-02T02:41:06.111Z,9.36
2017-05-02T02:41:46.862Z,9.29
2017-05-02T02:42:27.520Z,9.4
2017-05-02T02:43:08.311Z,9.31
2017-05-02T02:43:49.027Z,9.32
2017-05-02T02:44:29.784Z,9.28
2017-05-02T02:45:10.440Z,9.29
2017-05-02T02:45:51.194Z,9.36
2017-05-02T02:46:31.952Z,9.34
2017-05-02T02:47:12.600Z,9.29
2017-05-02T02:47:53.259Z,9.25
2017-05-02T02:48:34.010Z,9.28
2017-05-02T02:49:14.662Z,9.29
2017-05-02T02:49:55.419Z,9.34
2017-05-02T02:50:35.986Z,9.31
2017-05-02T02:51:16.649Z,9.39
2017-05-02T02:51:57.374Z,9.4
2017-05-02T02:52:38.019Z,9.29
2017-05-02T02:53:18.707Z,9.31
2017-05-02T02:53:59.441Z,9.37
2017-05-02T02:54:40.019Z,9.37
2017-05-02T02:55:20.777Z,9.29
2017-05-02T02:56:01.592Z,9.31
2017-05-02T02:56:42.362Z,9.25
2017-05-02T02:57:23.007Z,9.34
2017-05-02T02:58:03.763Z,9.36
2017-05-02T02:58:44.540Z,9.28
2017-05-02T02:59:25.274Z,9.22
2017-05-02T03:00:06.028Z,9.29
2017-05-02T03:00:46.593Z,9.28
2017-05-02T03:01:27.370Z,9.28
2017-05-02T03:02:08.007Z,9.26
2017-05-02T03:02:48.753Z,9.28
2017-05-02T03:03:29.507Z,9.37
2017-05-02T03:04:10.167Z,9.23
2017-05-02T03:04:50.942Z,9.25
2017-05-02T03:05:31.675Z,9.29
2017-05-02T03:06:12.338Z,9.28
2017-05-02T03:06:53.102Z,9.26
2017-05-02T03:07:33.758Z,9.26
2017-05-02T03:08:14.496Z,9.23
2017-05-02T03:08:55.155Z,9.26
2017-05-02T03:09:35.918Z,9.29
2017-05-02T03:10:16.736Z,9.39
2017-05-02T03:10:57.421Z,9.28
2017-05-02T03:11:38.108Z,9.34
2017-05-02T03:12:18.811Z,9.31
2017-05-02T03:12:59.391Z,9.31
2017-05-02T03:13:40.533Z,9.26
2017-05-02T03:14:21.234Z,9.31
2017-05-02T03:15:01.934Z,9.26
2017-05-02T03:15:42.499Z,9.26
2017-05-02T03:16:23.067Z,9.28
2017-05-02T03:17:04.230Z,9.25
2017-05-02T03:17:44.972Z,9.22
2017-05-02T03:18:25.729Z,9.18
2017-05-02T03:19:06.494Z,9.28
2017-05-02T03:19:47.256Z,9.23
2017-05-02T03:20:27.982Z,9.28
2017-05-02T03:21:08.737Z,9.22
2017-05-02T03:21:49.520Z,9.21
2017-05-02T03:22:30.270Z,9.21
2017-05-02T03:23:10.962Z,9.21
2017-05-02T03:23:51.673Z,9.26
2017-05-02T03:24:32.430Z,9.22
2017-05-02T03:25:13.212Z,9.26
2017-05-02T03:25:53.947Z,9.22
2017-05-02T03:26:34.633Z,9.23
2017-05-02T03:27:15.323Z,9.21
2017-05-02T03:27:55.902Z,9.19
2017-05-02T03:28:36.655Z,9.22
2017-05-02T03:29:17.335Z,9.18
2017-05-02T03:29:57.957Z,9.22
2017-05-02T03:30:38.529Z,9.16
2017-05-02T03:31:19.256Z,9.21
2017-05-02T03:32:00.041Z,9.21
2017-05-02T03:32:40.779Z,9.16
2017-05-02T03:33:21.524Z,9.21
2017-05-02T03:34:02.385Z,9.16
2017-05-02T03:34:43.140Z,9.16
2017-05-02T03:35:23.801Z,9.22
2017-05-02T03:36:04.576Z,9.11
2017-05-02T03:36:45.380Z,9.23
2017-05-02T03:37:26.462Z,9.21
2017-05-02T03:38:07.230Z,9.25
2017-05-02T03:38:47.989Z,9.18
2017-05-02T03:39:28.736Z,9.18
2017-05-02T03:40:09.503Z,9.22
2017-05-02T03:40:50.254Z,9.16
2017-05-02T03:41:31.009Z,9.16
2017-05-02T03:42:11.763Z,9.21
2017-05-02T03:42:52.516Z,9.1
2017-05-02T03:43:33.254Z,9.19
2017-05-02T03:44:14.030Z,9.14
2017-05-02T03:44:54.765Z,9.11
2017-05-02T03:45:35.537Z,9.14
2017-05-02T03:46:16.231Z,9.06
2017-05-02T03:46:56.821Z,9.14
2017-05-02T03:47:37.796Z,9.1
2017-05-02T03:48:18.561Z,9.14
2017-05-02T03:48:59.246Z,9.14
2017-05-02T03:49:39.945Z,9.11
2017-05-02T03:50:20.507Z,9.14
2017-05-02T03:51:01.274Z,9.16
2017-05-02T03:51:42.012Z,9.1
2017-05-02T03:52:22.569Z,9.04
2017-05-02T03:53:03.321Z,9.14
2017-05-02T03:53:44.095Z,9
2017-05-02T03:54:24.669Z,9.11
2017-05-02T03:55:05.395Z,9.06
2017-05-02T03:55:46.125Z,9.08
2017-05-02T03:56:26.891Z,9.11
2017-05-02T03:57:07.546Z,9.08
2017-05-02T03:57:48.296Z,9.04
2017-05-02T03:58:29.056Z,9.1
2017-05-02T03:59:09.742Z,9.03
2017-05-02T03:59:50.451Z,9.1
2017-05-02T04:00:31.213Z,9.11
2017-05-02T04:01:12.175Z,9.03
2017-05-02T04:01:52.945Z,9.06
2017-05-02T04:02:33.633Z,9.08
2017-05-02T04:03:14.356Z,9.06
2017-05-02T04:03:54.909Z,9.06
2017-05-02T04:04:35.650Z,9.11
2017-05-02T04:05:16.376Z,9.06
2017-05-02T04:05:57.151Z,9.14
2017-05-02T04:06:37.909Z,9.06
2017-05-02T04:07:19.891Z,9.11
2017-05-02T04:08:00.648Z,9.06
2017-05-02T04:08:41.403Z,9.11
2017-05-02T04:09:22.222Z,9.08
2017-05-02T04:10:02.916Z,9.13
2017-05-02T04:10:43.682Z,9.03
2017-05-02T04:11:24.426Z,9.06
2017-05-02T04:12:05.182Z,9.08
2017-05-02T04:12:45.937Z,9.08
2017-05-02T04:13:27.716Z,9.08
2017-05-02T04:14:08.368Z,9.08
2017-05-02T04:14:49.132Z,9.06
2017-05-02T04:15:29.882Z,9.08
2017-05-02T04:16:10.635Z,9.06
2017-05-02T04:16:51.390Z,9.11
2017-05-02T04:17:32.156Z,9.08
2017-05-02T04:18:12.900Z,9.04
2017-05-02T04:18:53.660Z,9.06
2017-05-02T04:19:34.422Z,9.04
2017-05-02T04:20:15.163Z,9.03
2017-05-02T04:20:55.753Z,9.11
2017-05-02T04:21:36.494Z,9.06
2017-05-02T04:22:17.187Z,9.08
2017-05-02T04:22:57.880Z,9.06
2017-05-02T04:23:38.458Z,9.06
2017-05-02T04:24:19.208Z,9.08
2017-05-02T04:24:59.897Z,9.08
2017-05-02T04:25:40.595Z,9.08
2017-05-02T04:26:21.258Z,9.08
2017-05-02T04:27:02.006Z,9.08
2017-05-02T04:27:42.760Z,9.03
2017-05-02T04:28:23.517Z,9.1
2017-05-02T04:29:04.272Z,9.03
2017-05-02T04:29:45.031Z,9.16
2017-05-02T04:30:25.783Z,9.06
2017-05-02T04:31:06.370Z,9.04
2017-05-02T04:31:48.141Z,9.13
2017-05-02T04:32:29.868Z,9.06
2017-05-02T04:33:10.653Z,9.18
2017-05-02T04:33:51.250Z,9.16
2017-05-02T04:34:31.969Z,9.13
2017-05-02T04:35:12.774Z,9.13
2017-05-02T04:35:53.466Z,9.13
2017-05-02T04:36:34.045Z,9.14
2017-05-02T04:37:14.774Z,9.13
2017-05-02T04:37:55.479Z,9.18
2017-05-02T04:38:36.175Z,9.19
2017-05-02T04:39:16.760Z,9.18
2017-05-02T04:39:57.501Z,9.14
2017-05-02T04:40:38.197Z,9.21
2017-05-02T04:41:18.890Z,9.1
2017-05-02T04:41:59.441Z,9.16
2017-05-02T04:42:40.231Z,9.14
2017-05-02T04:43:20.962Z,9.19
2017-05-02T04:44:01.719Z,9.23
2017-05-02T04:44:42.477Z,9.21
2017-05-02T04:45:23.227Z,9.21
2017-05-02T04:46:03.992Z,9.18
2017-05-02T04:46:44.742Z,9.18
2017-05-02T04:47:25.497Z,9.22
2017-05-02T04:48:06.263Z,9.23
2017-05-02T04:48:47.028Z,9.19
2017-05-02T04:49:27.818Z,9.21
2017-05-02T04:50:08.521Z,9.16
2017-05-02T04:50:49.284Z,9.22
2017-05-02T04:51:30.018Z,9.22
2017-05-02T04:52:10.599Z,9.18
2017-05-02T04:52:51.232Z,9.21
2017-05-02T04:53:31.978Z,9.25
2017-05-02T04:54:12.553Z,9.26
2017-05-02T04:54:53.302Z,9.26
2017-05-02T04:55:34.040Z,9.26
2017-05-02T04:56:14.694Z,9.26
2017-05-02T04:56:55.544Z,9.21
2017-05-02T04:57:36.256Z,9.25
2017-05-02T04:58:16.955Z,9.28
2017-05-02T04:58:57.516Z,9.25
2017-05-02T04:59:38.374Z,9.39
2017-05-02T05:00:19.072Z,9.26
2017-05-02T05:00:59.772Z,9.31
2017-05-02T05:01:40.530Z,9.34
2017-05-02T05:02:21.281Z,9.29
2017-05-02T05:03:02.041Z,9.4
2017-05-02T05:03:42.792Z,9.26
2017-05-02T05:04:23.547Z,9.39
2017-05-02T05:05:04.309Z,9.36
2017-05-02T05:05:45.060Z,9.37
2017-05-02T05:06:26.335Z,9.39
2017-05-02T05:07:07.109Z,9.44
2017-05-02T05:07:47.862Z,9.39
2017-05-02T05:08:28.750Z,9.37
2017-05-02T05:09:09.861Z,9.44
2017-05-02T05:09:50.536Z,9.41
2017-05-02T05:10:31.187Z,9.44
2017-05-02T05:11:11.848Z,9.51
2017-05-02T05:11:52.497Z,9.56
2017-05-02T05:12:33.153Z,9.54
2017-05-02T05:13:13.805Z,9.59
2017-05-02T05:13:54.440Z,9.61
2017-05-02T05:14:35.097Z,9.55
2017-05-02T05:15:15.765Z,9.55
2017-05-02T05:15:56.420Z,9.55
2017-05-02T05:16:37.056Z,9.5
2017-05-02T05:17:17.817Z,9.62
2017-05-02T05:17:58.477Z,9.62
2017-05-02T05:18:39.131Z,9.55
2017-05-02T05:19:19.783Z,9.51
2017-05-02T05:20:00.433Z,9.55
2017-05-02T05:20:41.081Z,9.51
2017-05-02T05:21:21.722Z,9.55
2017-05-02T05:22:02.300Z,9.55
2017-05-02T05:22:42.940Z,9.59
2017-05-02T05:23:24.600Z,9.58
2017-05-02T05:24:06.396Z,9.55
2017-05-02T05:24:47.038Z,9.56
2017-05-02T05:25:27.687Z,9.51
2017-05-02T05:26:08.252Z,9.58
2017-05-02T05:26:48.907Z,9.48
2017-05-02T05:27:29.633Z,9.55
2017-05-02T05:28:10.303Z,9.54
2017-05-02T05:28:50.864Z,9.54
2017-05-02T05:29:31.525Z,9.5
2017-05-02T05:30:12.122Z,9.56
2017-05-02T05:30:52.804Z,9.56
2017-05-02T05:31:33.378Z,9.51
2017-05-02T05:32:14.027Z,9.56
2017-05-02T05:32:54.623Z,9.56
2017-05-02T05:33:35.391Z,9.51
2017-05-02T05:34:15.900Z,9.58
2017-05-02T05:34:56.537Z,9.59
2017-05-02T05:35:37.237Z,9.54
2017-05-02T05:36:17.937Z,9.47
2017-05-02T05:36:58.584Z,9.5
2017-05-02T05:37:39.239Z,9.5
2017-05-02T05:38:19.893Z,9.55
2017-05-02T05:39:00.541Z,9.56
2017-05-02T05:39:41.197Z,9.51
2017-05-02T05:40:21.845Z,9.55
2017-05-02T05:41:02.452Z,9.51
2017-05-02T05:41:43.068Z,9.54
2017-05-02T05:42:23.756Z,9.56
2017-05-02T05:43:04.459Z,9.55
2017-05-02T05:43:45.035Z,9.58
2017-05-02T05:44:25.676Z,9.61
2017-05-02T05:45:06.386Z,9.51
2017-05-02T05:45:47.072Z,9.51
2017-05-02T05:46:27.676Z,9.54
2017-05-02T05:47:08.299Z,9.51
2017-05-02T05:47:49.031Z,9.48
2017-05-02T05:48:29.599Z,9.51
2017-05-02T05:49:10.259Z,9.56
2017-05-02T05:49:50.897Z,9.58
2017-05-02T05:50:31.464Z,9.54
2017-05-02T05:51:12.144Z,9.55
2017-05-02T05:51:52.740Z,9.58
2017-05-02T05:52:33.312Z,9.55
2017-05-02T05:53:13.963Z,9.66
2017-05-02T05:53:54.598Z,9.64
2017-05-02T05:54:35.184Z,9.64
2017-05-02T05:55:15.837Z,9.72
2017-05-02T05:55:56.458Z,9.64
2017-05-02T05:56:37.021Z,9.66
2017-05-02T05:57:17.681Z,9.62
2017-05-02T05:57:58.373Z,9.76
2017-05-02T05:58:38.963Z,9.73
2017-05-02T05:59:20.790Z,9.65
2017-05-02T06:00:01.411Z,9.73
2017-05-02T06:00:42.102Z,9.69
2017-05-02T06:01:22.803Z,9.74
2017-05-02T06:02:03.377Z,9.72
2017-05-02T06:02:44.015Z,9.74
2017-05-02T06:03:24.613Z,9.8
2017-05-02T06:04:06.342Z,9.77
2017-05-02T06:04:46.890Z,9.79
2017-05-02T06:05:27.563Z,9.8
2017-05-02T06:06:10.205Z,9.84
2017-05-02T06:06:50.785Z,9.82
2017-05-02T06:07:31.475Z,9.86
2017-05-02T06:08:13.119Z,9.76
2017-05-02T06:08:53.682Z,9.8
2017-05-02T06:09:34.352Z,9.79
2017-05-02T06:10:16.001Z,9.76
2017-05-02T06:10:56.594Z,9.74
2017-05-02T06:11:37.315Z,9.76
2017-05-02T06:12:18.051Z,9.79
2017-05-02T06:12:58.807Z,9.82
2017-05-02T06:13:39.518Z,9.76
2017-05-02T06:14:20.261Z,9.86
2017-05-02T06:15:01.942Z,9.83
2017-05-02T06:15:42.639Z,9.84
2017-05-02T06:16:23.272Z,9.77
2017-05-02T06:17:03.973Z,9.79
2017-05-02T06:17:44.550Z,9.82
2017-05-02T06:18:25.198Z,9.79
2017-05-02T06:19:05.881Z,9.86
2017-05-02T06:19:46.582Z,9.79
2017-05-02T06:20:27.160Z,9.82
2017-05-02T06:21:07.821Z,9.82
2017-05-02T06:21:48.443Z,9.83
2017-05-02T06:22:29.029Z,9.82
2017-05-02T06:23:10.713Z,9.82
2017-05-02T06:23:51.431Z,9.83
2017-05-02T06:24:32.001Z,9.92
2017-05-02T06:25:12.651Z,9.91
2017-05-02T06:25:53.281Z,9.94
2017-05-02T06:26:33.898Z,9.84
2017-05-02T06:27:14.631Z,9.8
2017-05-02T06:27:55.344Z,9.84
2017-05-02T06:28:35.924Z,9.89
2017-05-02T06:29:16.566Z,9.79
2017-05-02T06:29:57.204Z,9.83
2017-05-02T06:30:37.771Z,9.87
2017-05-02T06:31:18.426Z,9.79
2017-05-02T06:31:59.060Z,9.83
2017-05-02T06:32:45.444Z,9.82
2017-05-02T06:33:26.092Z,9.86
2017-05-02T06:34:08.802Z,9.87
2017-05-02T06:34:49.447Z,9.8
2017-05-02T06:35:30.097Z,9.79
2017-05-02T06:36:10.752Z,9.8
2017-05-02T06:36:51.408Z,9.8
2017-05-02T06:37:32.118Z,9.83
2017-05-02T06:38:12.842Z,9.79
2017-05-02T06:38:53.489Z,9.79
2017-05-02T06:39:34.146Z,9.91
2017-05-02T06:40:16.891Z,9.83
2017-05-02T06:40:58.538Z,9.82
2017-05-02T06:41:39.629Z,9.8
2017-05-02T06:42:21.343Z,9.83
2017-05-02T06:43:01.921Z,9.83
2017-05-02T06:43:42.581Z,9.79
2017-05-02T06:44:24.287Z,9.84
2017-05-02T06:45:04.991Z,9.77
2017-05-02T06:45:45.961Z,9.84
2017-05-02T06:46:26.618Z,9.8
2017-05-02T06:47:07.340Z,9.79
2017-05-02T06:47:48.106Z,9.79
2017-05-02T06:48:28.705Z,9.8
2017-05-02T06:49:09.437Z,9.73
2017-05-02T06:49:50.124Z,9.8
2017-05-02T06:50:30.820Z,9.83
2017-05-02T06:51:11.402Z,9.87
2017-05-02T06:51:52.094Z,9.79
2017-05-02T06:52:32.699Z,9.82
2017-05-02T06:53:13.340Z,9.79
2017-05-02T06:53:54.008Z,9.82
2017-05-02T06:54:34.649Z,9.86
2017-05-02T06:55:15.314Z,9.84
2017-05-02T06:55:56.005Z,9.79
2017-05-02T06:56:36.610Z,9.79
2017-05-02T06:57:17.300Z,9.83
2017-05-02T06:57:58.002Z,9.84
2017-05-02T06:58:38.585Z,9.82
2017-05-02T06:59:19.259Z,9.82
2017-05-02T07:00:00.038Z,9.84
2017-05-02T07:00:40.725Z,9.82
2017-05-02T07:01:21.429Z,9.8
2017-05-02T07:02:02.180Z,9.79
2017-05-02T07:02:42.881Z,9.91
2017-05-02T07:03:23.573Z,9.84
2017-05-02T07:04:04.199Z,9.84
2017-05-02T07:04:44.891Z,9.86
2017-05-02T07:05:25.603Z,9.87
2017-05-02T07:06:06.258Z,9.95
2017-05-02T07:06:47.151Z,9.92
2017-05-02T07:07:28.504Z,9.97
2017-05-02T07:08:10.847Z,9.95
2017-05-02T07:08:51.590Z,9.97
2017-05-02T07:09:32.428Z,9.84
2017-05-02T07:10:13.150Z,9.98
2017-05-02T07:10:53.798Z,9.98
2017-05-02T07:11:34.464Z,9.98
2017-05-02T07:12:15.138Z,9.97
2017-05-02T07:12:55.841Z,9.92
2017-05-02T07:13:36.410Z,9.95
2017-05-02T07:14:17.053Z,9.95
2017-05-02T07:14:57.775Z,9.99
2017-05-02T07:15:38.457Z,9.95
2017-05-02T07:16:19.026Z,9.98
2017-05-02T07:16:59.692Z,9.95
2017-05-02T07:17:40.331Z,9.98
2017-05-02T07:18:21.005Z,9.97
2017-05-02T07:19:01.665Z,9.95
2017-05-02T07:19:42.308Z,9.95
2017-05-02T07:20:23.973Z,9.97
2017-05-02T07:21:04.636Z,9.95
2017-05-02T07:21:45.250Z,9.94
2017-05-02T07:22:25.833Z,9.97
2017-05-02T07:23:06.469Z,9.94
2017-05-02T07:23:47.109Z,9.91
2017-05-02T07:24:27.704Z,9.92
2017-05-02T07:25:08.325Z,9.94
2017-05-02T07:25:48.966Z,9.95
2017-05-02T07:26:29.538Z,9.98
2017-05-02T07:27:10.208Z,9.99
2017-05-02T07:27:50.877Z,9.97
2017-05-02T07:28:31.576Z,10.01
2017-05-02T07:29:12.146Z,9.98
2017-05-02T07:29:52.791Z,9.95
2017-05-02T07:30:33.432Z,10.02
2017-05-02T07:31:13.998Z,10.01
2017-05-02T07:31:54.654Z,10.07
2017-05-02T07:32:35.328Z,10.05
2017-05-02T07:33:15.972Z,10.13
2017-05-02T07:33:57.659Z,10.05
2017-05-02T07:34:38.312Z,10.05
2017-05-02T07:35:18.949Z,10.09
2017-05-02T07:35:59.613Z,10.13
2017-05-02T07:36:40.247Z,10.1
2017-05-02T07:37:20.907Z,10.1
2017-05-02T07:38:01.559Z,10.17
2017-05-02T07:38:42.308Z,10.22
2017-05-02T07:39:22.966Z,10.19
2017-05-02T07:40:03.612Z,10.19
2017-05-02T07:40:44.271Z,10.17
2017-05-02T07:41:24.961Z,10.23
2017-05-02T07:42:05.587Z,10.3
2017-05-02T07:42:46.233Z,10.22
2017-05-02T07:43:26.874Z,10.26
2017-05-02T07:44:07.540Z,10.33
2017-05-02T07:44:48.179Z,10.35
2017-05-02T07:45:28.858Z,10.4
2017-05-02T07:46:09.509Z,10.41
2017-05-02T07:46:50.231Z,10.54
2017-05-02T07:47:30.805Z,10.51
2017-05-02T07:48:11.454Z,10.54
2017-05-02T07:48:52.086Z,10.46
2017-05-02T07:49:32.661Z,10.51
2017-05-02T07:50:13.336Z,10.68
2017-05-02T07:50:54.054Z,10.67
2017-05-02T07:51:34.624Z,10.71
2017-05-02T07:52:15.270Z,10.71
2017-05-02T07:52:55.936Z,10.81
2017-05-02T07:53:36.590Z,10.78
2017-05-02T07:54:17.244Z,10.75
2017-05-02T07:54:57.876Z,10.82
2017-05-02T07:55:38.574Z,10.82
2017-05-02T07:56:19.201Z,10.9
2017-05-02T07:56:59.749Z,10.92
2017-05-02T07:57:40.390Z,10.99
2017-05-02T07:58:21.079Z,10.99
2017-05-02T07:59:01.786Z,11.07
2017-05-02T07:59:42.345Z,11.25
2017-05-02T08:00:23.002Z,11.33
2017-05-02T08:01:03.724Z,11.37
2017-05-02T08:01:44.396Z,11.43
2017-05-02T08:02:24.961Z,11.52
2017-05-02T08:03:05.614Z,11.54
2017-05-02T08:03:46.177Z,11.55
2017-05-02T08:04:28.034Z,11.51
2017-05-02T08:05:08.735Z,11.55
2017-05-02T08:05:49.440Z,11.65
2017-05-02T08:06:30.017Z,11.6
2017-05-02T08:07:10.670Z,11.63
2017-05-02T08:07:51.820Z,11.63
2017-05-02T08:08:32.480Z,11.62
2017-05-02T08:09:13.151Z,11.59
2017-05-02T08:09:53.896Z,11.7
2017-05-02T08:10:34.665Z,11.81
2017-05-02T08:11:15.277Z,11.91
2017-05-02T08:11:55.945Z,11.97
2017-05-02T08:12:36.600Z,11.99
2017-05-02T08:13:17.292Z,11.95
2017-05-02T08:13:58.111Z,12.07
2017-05-02T08:14:38.772Z,12.13
2017-05-02T08:15:19.419Z,12.2
2017-05-02T08:16:00.056Z,12.27
2017-05-02T08:16:41.733Z,12.32
2017-05-02T08:17:22.318Z,12.42
2017-05-02T08:18:02.964Z,12.5
2017-05-02T08:18:43.693Z,12.54
2017-05-02T08:19:24.271Z,12.47
2017-05-02T08:20:05.019Z,12.5
2017-05-02T08:20:45.656Z,12.55
2017-05-02T08:21:26.235Z,12.57
2017-05-02T08:22:06.876Z,12.6
2017-05-02T08:22:47.989Z,12.57
2017-05-02T08:23:28.696Z,12.54
2017-05-02T08:24:09.391Z,12.57
2017-05-02T08:24:50.120Z,12.55
2017-05-02T08:25:31.160Z,12.55
2017-05-02T08:26:11.819Z,12.53
2017-05-02T08:26:52.553Z,12.68
2017-05-02T08:27:33.122Z,12.65
2017-05-02T08:28:13.770Z,12.75
2017-05-02T08:28:54.527Z,12.76
2017-05-02T08:29:35.113Z,12.76
2017-05-02T08:30:15.847Z,12.68
2017-05-02T08:30:56.462Z,12.7
2017-05-02T08:31:37.449Z,12.68
2017-05-02T08:32:20.148Z,12.64
2017-05-02T08:33:00.841Z,12.73
2017-05-02T08:33:43.579Z,12.85
2017-05-02T08:34:24.143Z,12.76
2017-05-02T08:35:04.812Z,12.85
2017-05-02T08:35:45.511Z,12.85
2017-05-02T08:36:27.228Z,12.83
2017-05-02T08:37:07.877Z,12.85
2017-05-02T08:37:48.540Z,12.87
2017-05-02T08:38:29.286Z,12.85
2017-05-02T08:39:10.046Z,12.87
2017-05-02T08:39:50.795Z,13.04
2017-05-02T08:40:31.551Z,13.08
2017-05-02T08:41:12.307Z,13.16
2017-05-02T08:41:53.063Z,13.09
2017-05-02T08:42:34.737Z,13.05
2017-05-02T08:43:15.397Z,13.08
2017-05-02T08:43:56.048Z,13.13
2017-05-02T08:44:36.801Z,13.19
2017-05-02T08:45:18.783Z,13.25
2017-05-02T08:45:59.547Z,13.31
2017-05-02T08:46:40.103Z,13.44
2017-05-02T08:47:20.911Z,13.44
2017-05-02T08:48:02.356Z,13.62
2017-05-02T08:48:42.972Z,13.67
2017-05-02T08:49:23.550Z,13.75
2017-05-02T08:50:04.306Z,13.83
2017-05-02T08:50:44.996Z,13.81
2017-05-02T08:51:25.686Z,13.77
2017-05-02T08:52:06.340Z,13.63
2017-05-02T08:52:46.999Z,13.7
2017-05-02T08:53:27.819Z,13.63
2017-05-02T08:54:08.722Z,13.54
2017-05-02T08:54:49.667Z,13.54
2017-05-02T08:55:30.240Z,13.5
2017-05-02T08:56:10.937Z,13.42
2017-05-02T08:56:51.484Z,13.52
2017-05-02T08:57:32.063Z,13.41
2017-05-02T08:58:12.757Z,13.3
2017-05-02T08:58:53.483Z,13.37
2017-05-02T08:59:34.046Z,13.39
2017-05-02T09:00:14.702Z,13.5